Meteorological Aerodrome Report (METAR)

METAR

Data at 2023-12-03 00:45

METAR

Data at 2023-12-03 00:45

METAR

Data at 2023-12-03 00:45

METAR for:NVSS (Santo/Pekoa Intl, SA, VU)
Text:NVSS 030000Z 12008KT 9999 SCT020 BKN040 30/25 Q1011
Conditions at:0000 UTC 03 Dec 2023
Temperature: 30.0°C ( 86°F)
Dewpoint: 25.0°C ( 77°F) [RH = 75%]
Pressure (altimeter):29.85 inches Hg (1011.0 mb)
Winds:from the ESE (120 degrees) at 9 MPH (8 knots; 4.1 m/s)
Visibility:6 or more sm (10+ km)
Ceiling:4000 feet AGL
Clouds:scattered clouds at 2000 feet AGL, broken clouds at 4000 feet AGL

METAR

Data at 2023-12-03 00:45

METAR

Data at 2023-12-03 00:45

METAR

Data at 2023-12-03 00:45

METAR for:NVVV (Efate/Bauerfield Intl, SE, VU)
Text:NVVV 030000Z 13009KT 9999 BKN020 31/24 Q1012
Conditions at:0000 UTC 03 Dec 2023
Temperature: 31.0°C ( 88°F)
Dewpoint: 24.0°C ( 75°F) [RH = 66%]
Pressure (altimeter):29.88 inches Hg (1012.0 mb)
Winds:from the SE (130 degrees) at 10 MPH (9 knots; 4.6 m/s)
Visibility:6 or more sm (10+ km)
Ceiling:2000 feet AGL
Clouds:broken clouds at 2000 feet AGL

METAR

Data at 2023-12-03 00:45

METAR for:NVVW (Tanna Arpt, TA, VU)
Text:NVVW 030000Z 18010KT 9999 SCT025 29/23 Q1013
Conditions at:0000 UTC 03 Dec 2023
Temperature: 29.0°C ( 84°F)
Dewpoint: 23.0°C ( 73°F) [RH = 70%]
Pressure (altimeter):29.91 inches Hg (1013.0 mb)
Winds:from the S (180 degrees) at 12 MPH (10 knots; 5.1 m/s)
Visibility:6 or more sm (10+ km)
Ceiling:at least 12,000 feet AGL
Clouds:scattered clouds at 2500 feet AGL

METAR

Data at 2023-12-03 00:45

METAR

Data at 2023-12-03 00:45 UTC

NVSC 022100Z 0900KT 9999 BKN018 OVC040 29/26 Q1011

NVSG 022100Z 12004KT 9999 FEW020 BKN300 29/26 Q1012

Request cannot be served.Request cannot be served.NVSS 030000Z 12008KT 9999 SCT020 BKN040 30/25 Q1011

NVVA 021200Z 00000KT 9999 FEW025 21/20 Q1014

NVVV 030000Z 13009KT 9999 BKN020 31/24 Q1012

NVVW 030000Z 18010KT 9999 SCT025 29/23 Q1013